sensor_id;sensor_type;location;lat;lon;timestamp;P1;durP1;ratioP1;P2;durP2;ratioP2
18166;SDS011;9208;42.688;23.404;2023-07-09T00:01:48;3.00;;;2.60;;
18166;SDS011;9208;42.688;23.404;2023-07-09T00:04:15;2.60;;;2.40;;
18166;SDS011;9208;42.688;23.404;2023-07-09T00:06:40;3.43;;;2.33;;
18166;SDS011;9208;42.688;23.404;2023-07-09T00:09:11;2.73;;;2.30;;
18166;SDS011;9208;42.688;23.404;2023-07-09T00:11:39;2.87;;;2.50;;
18166;SDS011;9208;42.688;23.404;2023-07-09T00:14:05;3.17;;;2.10;;
18166;SDS011;9208;42.688;23.404;2023-07-09T00:16:31;3.83;;;2.67;;
18166;SDS011;9208;42.688;23.404;2023-07-09T00:18:57;2.97;;;2.63;;
18166;SDS011;9208;42.688;23.404;2023-07-09T00:21:22;2.50;;;2.30;;
18166;SDS011;9208;42.688;23.404;2023-07-09T00:23:48;3.03;;;2.70;;
18166;SDS011;9208;42.688;23.404;2023-07-09T00:26:14;4.33;;;2.47;;
18166;SDS011;9208;42.688;23.404;2023-07-09T00:28:42;5.17;;;2.83;;
18166;SDS011;9208;42.688;23.404;2023-07-09T00:31:10;4.90;;;2.77;;
18166;SDS011;9208;42.688;23.404;2023-07-09T00:33:38;2.93;;;2.63;;
18166;SDS011;9208;42.688;23.404;2023-07-09T00:36:04;2.93;;;2.70;;
18166;SDS011;9208;42.688;23.404;2023-07-09T00:38:39;3.63;;;2.57;;
18166;SDS011;9208;42.688;23.404;2023-07-09T00:41:08;5.00;;;3.03;;
18166;SDS011;9208;42.688;23.404;2023-07-09T00:43:42;3.33;;;3.03;;
18166;SDS011;9208;42.688;23.404;2023-07-09T00:48:51;3.97;;;3.00;;
18166;SDS011;9208;42.688;23.404;2023-07-09T00:51:30;3.57;;;2.60;;
18166;SDS011;9208;42.688;23.404;2023-07-09T00:53:58;5.50;;;2.67;;
18166;SDS011;9208;42.688;23.404;2023-07-09T00:56:36;4.23;;;2.60;;
18166;SDS011;9208;42.688;23.404;2023-07-09T00:59:06;3.60;;;2.40;;
18166;SDS011;9208;42.688;23.404;2023-07-09T01:01:37;4.53;;;2.53;;
18166;SDS011;9208;42.688;23.404;2023-07-09T01:04:06;4.93;;;3.30;;
18166;SDS011;9208;42.688;23.404;2023-07-09T01:06:35;3.80;;;2.90;;
18166;SDS011;9208;42.688;23.404;2023-07-09T01:09:04;3.07;;;2.87;;
18166;SDS011;9208;42.688;23.404;2023-07-09T01:11:31;3.77;;;3.13;;
18166;SDS011;9208;42.688;23.404;2023-07-09T01:13:58;4.93;;;3.60;;
18166;SDS011;9208;42.688;23.404;2023-07-09T01:17:09;7.43;;;3.30;;
18166;SDS011;9208;42.688;23.404;2023-07-09T01:19:22;3.60;;;3.30;;
18166;SDS011;9208;42.688;23.404;2023-07-09T01:22:00;4.30;;;3.00;;
18166;SDS011;9208;42.688;23.404;2023-07-09T01:27:16;3.83;;;3.53;;
18166;SDS011;9208;42.688;23.404;2023-07-09T01:29:43;6.17;;;3.20;;
18166;SDS011;9208;42.688;23.404;2023-07-09T01:32:15;4.80;;;3.57;;
18166;SDS011;9208;42.688;23.404;2023-07-09T01:34:43;3.53;;;3.23;;
18166;SDS011;9208;42.688;23.404;2023-07-09T01:37:09;4.03;;;3.60;;
18166;SDS011;9208;42.688;23.404;2023-07-09T01:39:34;3.97;;;3.27;;
18166;SDS011;9208;42.688;23.404;2023-07-09T01:42:01;4.20;;;3.80;;
18166;SDS011;9208;42.688;23.404;2023-07-09T01:44:26;3.83;;;3.43;;
18166;SDS011;9208;42.688;23.404;2023-07-09T01:46:54;4.87;;;3.63;;
18166;SDS011;9208;42.688;23.404;2023-07-09T01:49:20;4.90;;;3.30;;
18166;SDS011;9208;42.688;23.404;2023-07-09T01:51:46;8.80;;;4.47;;
18166;SDS011;9208;42.688;23.404;2023-07-09T01:54:14;4.30;;;3.60;;
18166;SDS011;9208;42.688;23.404;2023-07-09T01:56:41;4.00;;;3.60;;
18166;SDS011;9208;42.688;23.404;2023-07-09T01:59:07;3.93;;;3.23;;
18166;SDS011;9208;42.688;23.404;2023-07-09T02:01:36;4.93;;;3.60;;
18166;SDS011;9208;42.688;23.404;2023-07-09T02:04:02;7.77;;;3.50;;
18166;SDS011;9208;42.688;23.404;2023-07-09T02:06:28;5.40;;;3.60;;
18166;SDS011;9208;42.688;23.404;2023-07-09T02:08:57;4.83;;;4.13;;
18166;SDS011;9208;42.688;23.404;2023-07-09T02:11:23;4.27;;;3.97;;
18166;SDS011;9208;42.688;23.404;2023-07-09T02:13:49;4.00;;;3.60;;
18166;SDS011;9208;42.688;23.404;2023-07-09T02:16:14;5.23;;;3.30;;
18166;SDS011;9208;42.688;23.404;2023-07-09T02:18:39;5.03;;;3.77;;
18166;SDS011;9208;42.688;23.404;2023-07-09T02:21:05;3.77;;;3.43;;
18166;SDS011;9208;42.688;23.404;2023-07-09T02:23:30;3.70;;;3.40;;
18166;SDS011;9208;42.688;23.404;2023-07-09T02:25:55;5.87;;;5.27;;
18166;SDS011;9208;42.688;23.404;2023-07-09T02:28:21;7.63;;;4.47;;
18166;SDS011;9208;42.688;23.404;2023-07-09T02:30:47;4.10;;;3.70;;
18166;SDS011;9208;42.688;23.404;2023-07-09T02:33:12;4.73;;;3.60;;
18166;SDS011;9208;42.688;23.404;2023-07-09T02:35:37;3.63;;;3.20;;
18166;SDS011;9208;42.688;23.404;2023-07-09T02:38:03;4.07;;;3.67;;
18166;SDS011;9208;42.688;23.404;2023-07-09T02:40:29;4.17;;;3.73;;
18166;SDS011;9208;42.688;23.404;2023-07-09T02:42:55;4.50;;;4.10;;
18166;SDS011;9208;42.688;23.404;2023-07-09T02:45:21;4.50;;;3.80;;
18166;SDS011;9208;42.688;23.404;2023-07-09T02:47:46;4.57;;;3.60;;
18166;SDS011;9208;42.688;23.404;2023-07-09T02:50:12;5.00;;;3.47;;
18166;SDS011;9208;42.688;23.404;2023-07-09T02:52:38;3.93;;;3.47;;
18166;SDS011;9208;42.688;23.404;2023-07-09T02:55:03;6.33;;;3.80;;
18166;SDS011;9208;42.688;23.404;2023-07-09T02:57:29;4.57;;;4.17;;
18166;SDS011;9208;42.688;23.404;2023-07-09T02:59:54;5.03;;;3.90;;
18166;SDS011;9208;42.688;23.404;2023-07-09T03:02:20;4.17;;;3.37;;
18166;SDS011;9208;42.688;23.404;2023-07-09T03:04:45;4.40;;;3.87;;
18166;SDS011;9208;42.688;23.404;2023-07-09T03:07:11;7.30;;;4.00;;
18166;SDS011;9208;42.688;23.404;2023-07-09T03:09:36;4.37;;;3.80;;
18166;SDS011;9208;42.688;23.404;2023-07-09T03:12:02;5.80;;;3.83;;
18166;SDS011;9208;42.688;23.404;2023-07-09T03:14:28;4.77;;;3.47;;
18166;SDS011;9208;42.688;23.404;2023-07-09T03:16:53;3.73;;;3.43;;
18166;SDS011;9208;42.688;23.404;2023-07-09T03:19:20;3.57;;;3.27;;
18166;SDS011;9208;42.688;23.404;2023-07-09T03:21:47;3.93;;;3.60;;
18166;SDS011;9208;42.688;23.404;2023-07-09T03:24:13;5.17;;;3.80;;
18166;SDS011;9208;42.688;23.404;2023-07-09T03:26:43;4.20;;;3.40;;
18166;SDS011;9208;42.688;23.404;2023-07-09T03:29:09;7.13;;;3.53;;
18166;SDS011;9208;42.688;23.404;2023-07-09T03:31:35;4.57;;;3.50;;
18166;SDS011;9208;42.688;23.404;2023-07-09T03:34:00;6.00;;;3.90;;
18166;SDS011;9208;42.688;23.404;2023-07-09T03:36:25;9.67;;;4.10;;
18166;SDS011;9208;42.688;23.404;2023-07-09T03:38:51;4.33;;;3.80;;
18166;SDS011;9208;42.688;23.404;2023-07-09T03:41:17;4.40;;;4.00;;
18166;SDS011;9208;42.688;23.404;2023-07-09T03:43:42;4.73;;;3.77;;
18166;SDS011;9208;42.688;23.404;2023-07-09T03:46:08;4.70;;;3.73;;
18166;SDS011;9208;42.688;23.404;2023-07-09T03:48:33;4.50;;;3.80;;
18166;SDS011;9208;42.688;23.404;2023-07-09T03:50:59;4.77;;;4.03;;
18166;SDS011;9208;42.688;23.404;2023-07-09T03:53:24;3.93;;;3.60;;
18166;SDS011;9208;42.688;23.404;2023-07-09T03:55:53;4.20;;;3.80;;
18166;SDS011;9208;42.688;23.404;2023-07-09T03:58:21;5.73;;;3.73;;
18166;SDS011;9208;42.688;23.404;2023-07-09T04:00:47;4.47;;;3.80;;
18166;SDS011;9208;42.688;23.404;2023-07-09T04:03:13;8.70;;;4.30;;
18166;SDS011;9208;42.688;23.404;2023-07-09T04:05:38;4.27;;;3.87;;
18166;SDS011;9208;42.688;23.404;2023-07-09T04:08:04;4.73;;;4.23;;
18166;SDS011;9208;42.688;23.404;2023-07-09T04:10:30;6.07;;;3.83;;
18166;SDS011;9208;42.688;23.404;2023-07-09T04:12:56;4.47;;;3.90;;
18166;SDS011;9208;42.688;23.404;2023-07-09T04:15:21;4.07;;;3.67;;
18166;SDS011;9208;42.688;23.404;2023-07-09T04:17:47;4.43;;;4.03;;
18166;SDS011;9208;42.688;23.404;2023-07-09T04:20:13;4.30;;;3.90;;
18166;SDS011;9208;42.688;23.404;2023-07-09T04:22:39;4.10;;;3.70;;
18166;SDS011;9208;42.688;23.404;2023-07-09T04:25:05;4.60;;;3.63;;
18166;SDS011;9208;42.688;23.404;2023-07-09T04:27:32;5.90;;;3.70;;
18166;SDS011;9208;42.688;23.404;2023-07-09T04:29:59;4.43;;;3.50;;
18166;SDS011;9208;42.688;23.404;2023-07-09T04:32:24;4.00;;;3.50;;
18166;SDS011;9208;42.688;23.404;2023-07-09T04:34:50;5.23;;;3.93;;
18166;SDS011;9208;42.688;23.404;2023-07-09T04:37:16;4.33;;;3.83;;
18166;SDS011;9208;42.688;23.404;2023-07-09T04:39:41;4.53;;;4.13;;
18166;SDS011;9208;42.688;23.404;2023-07-09T04:42:10;4.63;;;3.53;;
18166;SDS011;9208;42.688;23.404;2023-07-09T04:44:37;4.37;;;3.80;;
18166;SDS011;9208;42.688;23.404;2023-07-09T04:47:03;4.37;;;3.73;;
18166;SDS011;9208;42.688;23.404;2023-07-09T04:49:29;4.20;;;3.80;;
18166;SDS011;9208;42.688;23.404;2023-07-09T04:51:54;4.17;;;3.60;;
18166;SDS011;9208;42.688;23.404;2023-07-09T04:54:21;4.33;;;3.77;;
18166;SDS011;9208;42.688;23.404;2023-07-09T04:56:48;4.10;;;3.70;;
18166;SDS011;9208;42.688;23.404;2023-07-09T04:59:13;4.10;;;3.70;;
18166;SDS011;9208;42.688;23.404;2023-07-09T05:01:39;3.73;;;3.43;;
18166;SDS011;9208;42.688;23.404;2023-07-09T05:04:04;4.97;;;3.40;;
18166;SDS011;9208;42.688;23.404;2023-07-09T05:06:30;4.27;;;3.40;;
18166;SDS011;9208;42.688;23.404;2023-07-09T05:08:55;4.00;;;3.63;;
18166;SDS011;9208;42.688;23.404;2023-07-09T05:11:21;5.13;;;3.47;;
18166;SDS011;9208;42.688;23.404;2023-07-09T05:13:47;6.27;;;3.57;;
18166;SDS011;9208;42.688;23.404;2023-07-09T05:16:12;3.73;;;3.30;;
18166;SDS011;9208;42.688;23.404;2023-07-09T05:18:37;3.80;;;3.50;;
18166;SDS011;9208;42.688;23.404;2023-07-09T05:21:03;7.63;;;4.00;;
18166;SDS011;9208;42.688;23.404;2023-07-09T05:23:29;5.47;;;4.10;;
18166;SDS011;9208;42.688;23.404;2023-07-09T05:25:57;7.73;;;4.20;;
18166;SDS011;9208;42.688;23.404;2023-07-09T05:28:24;5.27;;;4.27;;
18166;SDS011;9208;42.688;23.404;2023-07-09T05:30:50;7.40;;;4.43;;
18166;SDS011;9208;42.688;23.404;2023-07-09T05:33:16;4.23;;;3.83;;
18166;SDS011;9208;42.688;23.404;2023-07-09T05:35:43;5.83;;;3.97;;
18166;SDS011;9208;42.688;23.404;2023-07-09T05:38:09;4.50;;;4.00;;
18166;SDS011;9208;42.688;23.404;2023-07-09T05:40:34;4.43;;;3.57;;
18166;SDS011;9208;42.688;23.404;2023-07-09T05:43:00;5.00;;;4.00;;
18166;SDS011;9208;42.688;23.404;2023-07-09T05:45:25;4.13;;;3.73;;
18166;SDS011;9208;42.688;23.404;2023-07-09T05:47:51;5.60;;;4.10;;
18166;SDS011;9208;42.688;23.404;2023-07-09T05:50:16;8.33;;;3.93;;
18166;SDS011;9208;42.688;23.404;2023-07-09T05:52:42;9.40;;;4.30;;
18166;SDS011;9208;42.688;23.404;2023-07-09T05:55:07;6.20;;;4.00;;
18166;SDS011;9208;42.688;23.404;2023-07-09T05:57:33;5.67;;;3.80;;
18166;SDS011;9208;42.688;23.404;2023-07-09T05:59:58;4.50;;;4.10;;
18166;SDS011;9208;42.688;23.404;2023-07-09T06:02:24;4.80;;;4.30;;
18166;SDS011;9208;42.688;23.404;2023-07-09T06:04:49;6.17;;;3.80;;
18166;SDS011;9208;42.688;23.404;2023-07-09T06:07:15;5.00;;;3.73;;
18166;SDS011;9208;42.688;23.404;2023-07-09T06:09:41;5.77;;;4.07;;
18166;SDS011;9208;42.688;23.404;2023-07-09T06:12:06;6.70;;;3.60;;
18166;SDS011;9208;42.688;23.404;2023-07-09T06:14:33;5.00;;;3.57;;
18166;SDS011;9208;42.688;23.404;2023-07-09T06:17:00;5.87;;;3.63;;
18166;SDS011;9208;42.688;23.404;2023-07-09T06:19:26;4.77;;;3.00;;
18166;SDS011;9208;42.688;23.404;2023-07-09T06:21:51;6.23;;;3.20;;
18166;SDS011;9208;42.688;23.404;2023-07-09T06:24:17;4.07;;;3.40;;
18166;SDS011;9208;42.688;23.404;2023-07-09T06:26:43;3.80;;;3.23;;
18166;SDS011;9208;42.688;23.404;2023-07-09T06:29:08;4.70;;;2.90;;
18166;SDS011;9208;42.688;23.404;2023-07-09T06:31:34;8.03;;;3.33;;
18166;SDS011;9208;42.688;23.404;2023-07-09T06:34:01;5.43;;;3.20;;
18166;SDS011;9208;42.688;23.404;2023-07-09T06:36:26;3.63;;;3.00;;
18166;SDS011;9208;42.688;23.404;2023-07-09T06:38:52;4.57;;;3.30;;
18166;SDS011;9208;42.688;23.404;2023-07-09T06:41:17;5.50;;;3.00;;
18166;SDS011;9208;42.688;23.404;2023-07-09T06:43:43;3.10;;;2.80;;
18166;SDS011;9208;42.688;23.404;2023-07-09T06:46:10;4.47;;;3.27;;
18166;SDS011;9208;42.688;23.404;2023-07-09T06:48:36;3.87;;;3.10;;
18166;SDS011;9208;42.688;23.404;2023-07-09T06:51:02;8.07;;;3.10;;
18166;SDS011;9208;42.688;23.404;2023-07-09T06:53:28;4.27;;;2.87;;
18166;SDS011;9208;42.688;23.404;2023-07-09T06:55:54;7.10;;;3.27;;
18166;SDS011;9208;42.688;23.404;2023-07-09T06:58:24;3.97;;;3.10;;
18166;SDS011;9208;42.688;23.404;2023-07-09T07:00:50;3.47;;;3.17;;
18166;SDS011;9208;42.688;23.404;2023-07-09T07:03:17;3.77;;;3.20;;
18166;SDS011;9208;42.688;23.404;2023-07-09T07:05:49;5.50;;;3.30;;
18166;SDS011;9208;42.688;23.404;2023-07-09T07:08:16;4.07;;;3.10;;
18166;SDS011;9208;42.688;23.404;2023-07-09T07:10:45;4.83;;;3.50;;
18166;SDS011;9208;42.688;23.404;2023-07-09T07:13:12;3.77;;;3.23;;
18166;SDS011;9208;42.688;23.404;2023-07-09T07:15:38;4.93;;;3.20;;
18166;SDS011;9208;42.688;23.404;2023-07-09T07:18:05;4.10;;;3.10;;
18166;SDS011;9208;42.688;23.404;2023-07-09T07:20:31;3.40;;;3.10;;
18166;SDS011;9208;42.688;23.404;2023-07-09T07:22:57;4.00;;;3.40;;
18166;SDS011;9208;42.688;23.404;2023-07-09T07:25:23;3.90;;;3.00;;
18166;SDS011;9208;42.688;23.404;2023-07-09T07:27:50;4.43;;;3.43;;
18166;SDS011;9208;42.688;23.404;2023-07-09T07:30:15;3.57;;;3.00;;
18166;SDS011;9208;42.688;23.404;2023-07-09T07:32:43;3.43;;;3.13;;
18166;SDS011;9208;42.688;23.404;2023-07-09T07:35:14;3.33;;;3.00;;
18166;SDS011;9208;42.688;23.404;2023-07-09T07:37:40;4.13;;;3.30;;
18166;SDS011;9208;42.688;23.404;2023-07-09T07:40:06;3.43;;;3.07;;
18166;SDS011;9208;42.688;23.404;2023-07-09T07:42:33;4.80;;;3.13;;
18166;SDS011;9208;42.688;23.404;2023-07-09T07:44:59;3.17;;;2.70;;
18166;SDS011;9208;42.688;23.404;2023-07-09T07:47:24;4.23;;;3.10;;
18166;SDS011;9208;42.688;23.404;2023-07-09T07:49:52;3.77;;;3.30;;
18166;SDS011;9208;42.688;23.404;2023-07-09T07:52:19;3.73;;;3.00;;
18166;SDS011;9208;42.688;23.404;2023-07-09T07:54:45;4.50;;;3.00;;
18166;SDS011;9208;42.688;23.404;2023-07-09T07:57:11;4.87;;;3.47;;
18166;SDS011;9208;42.688;23.404;2023-07-09T07:59:37;4.17;;;3.10;;
18166;SDS011;9208;42.688;23.404;2023-07-09T08:02:04;4.60;;;3.30;;
18166;SDS011;9208;42.688;23.404;2023-07-09T08:04:31;6.57;;;3.30;;
18166;SDS011;9208;42.688;23.404;2023-07-09T08:06:56;4.20;;;3.17;;
18166;SDS011;9208;42.688;23.404;2023-07-09T08:09:23;5.17;;;2.80;;
18166;SDS011;9208;42.688;23.404;2023-07-09T08:11:49;2.97;;;2.73;;
18166;SDS011;9208;42.688;23.404;2023-07-09T08:14:14;4.30;;;3.40;;
18166;SDS011;9208;42.688;23.404;2023-07-09T08:16:40;3.40;;;2.80;;
18166;SDS011;9208;42.688;23.404;2023-07-09T08:19:05;5.67;;;2.90;;
18166;SDS011;9208;42.688;23.404;2023-07-09T08:21:31;5.90;;;2.87;;
18166;SDS011;9208;42.688;23.404;2023-07-09T08:23:56;4.67;;;2.80;;
18166;SDS011;9208;42.688;23.404;2023-07-09T08:26:24;6.00;;;2.93;;
18166;SDS011;9208;42.688;23.404;2023-07-09T08:28:50;4.97;;;3.03;;
18166;SDS011;9208;42.688;23.404;2023-07-09T08:31:16;6.40;;;2.70;;
18166;SDS011;9208;42.688;23.404;2023-07-09T08:33:42;3.07;;;2.87;;
18166;SDS011;9208;42.688;23.404;2023-07-09T08:36:07;3.10;;;2.80;;
18166;SDS011;9208;42.688;23.404;2023-07-09T08:38:33;3.17;;;2.87;;
18166;SDS011;9208;42.688;23.404;2023-07-09T08:43:29;4.50;;;3.17;;
18166;SDS011;9208;42.688;23.404;2023-07-09T08:46:00;6.20;;;4.40;;
18166;SDS011;9208;42.688;23.404;2023-07-09T08:48:35;6.73;;;3.20;;
18166;SDS011;9208;42.688;23.404;2023-07-09T08:51:07;3.77;;;3.30;;
18166;SDS011;9208;42.688;23.404;2023-07-09T08:53:43;6.83;;;3.70;;
18166;SDS011;9208;42.688;23.404;2023-07-09T08:56:14;3.83;;;3.07;;
18166;SDS011;9208;42.688;23.404;2023-07-09T08:58:41;8.13;;;3.93;;
18166;SDS011;9208;42.688;23.404;2023-07-09T09:01:25;3.70;;;3.40;;
18166;SDS011;9208;42.688;23.404;2023-07-09T09:09:46;5.00;;;3.23;;
18166;SDS011;9208;42.688;23.404;2023-07-09T09:12:30;3.60;;;3.30;;
18166;SDS011;9208;42.688;23.404;2023-07-09T09:15:04;4.07;;;3.67;;
18166;SDS011;9208;42.688;23.404;2023-07-09T09:17:38;3.63;;;3.23;;
18166;SDS011;9208;42.688;23.404;2023-07-09T09:20:06;6.50;;;3.40;;
18166;SDS011;9208;42.688;23.404;2023-07-09T09:25:41;3.97;;;3.50;;
18166;SDS011;9208;42.688;23.404;2023-07-09T09:28:10;3.70;;;3.40;;
18166;SDS011;9208;42.688;23.404;2023-07-09T09:30:38;3.67;;;3.37;;
18166;SDS011;9208;42.688;23.404;2023-07-09T09:33:07;6.67;;;3.60;;
18166;SDS011;9208;42.688;23.404;2023-07-09T09:35:35;4.47;;;3.20;;
18166;SDS011;9208;42.688;23.404;2023-07-09T09:38:02;3.87;;;3.33;;
18166;SDS011;9208;42.688;23.404;2023-07-09T09:40:39;8.60;;;4.20;;
18166;SDS011;9208;42.688;23.404;2023-07-09T09:43:10;3.37;;;3.07;;
18166;SDS011;9208;42.688;23.404;2023-07-09T09:45:39;4.50;;;3.03;;
18166;SDS011;9208;42.688;23.404;2023-07-09T09:48:18;4.97;;;3.03;;
18166;SDS011;9208;42.688;23.404;2023-07-09T09:50:54;3.60;;;3.30;;
18166;SDS011;9208;42.688;23.404;2023-07-09T09:53:25;3.37;;;3.00;;
18166;SDS011;9208;42.688;23.404;2023-07-09T09:55:53;3.73;;;3.33;;
18166;SDS011;9208;42.688;23.404;2023-07-09T09:58:20;3.50;;;3.20;;
18166;SDS011;9208;42.688;23.404;2023-07-09T10:00:51;3.60;;;3.30;;
18166;SDS011;9208;42.688;23.404;2023-07-09T10:03:18;6.87;;;6.20;;
18166;SDS011;9208;42.688;23.404;2023-07-09T10:05:47;6.30;;;3.93;;
18166;SDS011;9208;42.688;23.404;2023-07-09T10:10:44;3.20;;;3.00;;
18166;SDS011;9208;42.688;23.404;2023-07-09T10:21:27;4.57;;;3.47;;
18166;SDS011;9208;42.688;23.404;2023-07-09T10:26:51;4.57;;;3.13;;
18166;SDS011;9208;42.688;23.404;2023-07-09T10:40:30;3.73;;;3.30;;
18166;SDS011;9208;42.688;23.404;2023-07-09T10:43:01;3.83;;;3.23;;
18166;SDS011;9208;42.688;23.404;2023-07-09T10:45:34;4.07;;;2.90;;
18166;SDS011;9208;42.688;23.404;2023-07-09T10:48:09;3.23;;;2.80;;
18166;SDS011;9208;42.688;23.404;2023-07-09T10:50:40;3.50;;;2.90;;
18166;SDS011;9208;42.688;23.404;2023-07-09T10:53:18;2.93;;;2.73;;
18166;SDS011;9208;42.688;23.404;2023-07-09T10:56:07;3.07;;;2.87;;
18166;SDS011;9208;42.688;23.404;2023-07-09T11:01:30;3.53;;;3.30;;
18166;SDS011;9208;42.688;23.404;2023-07-09T11:04:05;2.70;;;2.50;;
18166;SDS011;9208;42.688;23.404;2023-07-09T11:06:37;3.10;;;2.90;;
18166;SDS011;9208;42.688;23.404;2023-07-09T11:09:26;4.17;;;2.77;;
18166;SDS011;9208;42.688;23.404;2023-07-09T11:11:56;5.53;;;3.30;;
18166;SDS011;9208;42.688;23.404;2023-07-09T11:14:28;3.43;;;3.13;;
18166;SDS011;9208;42.688;23.404;2023-07-09T11:17:03;3.53;;;2.67;;
18166;SDS011;9208;42.688;23.404;2023-07-09T11:19:40;3.13;;;2.83;;
18166;SDS011;9208;42.688;23.404;2023-07-09T11:22:16;5.93;;;2.93;;
18166;SDS011;9208;42.688;23.404;2023-07-09T11:24:50;3.03;;;2.83;;
18166;SDS011;9208;42.688;23.404;2023-07-09T11:27:18;2.93;;;2.63;;
18166;SDS011;9208;42.688;23.404;2023-07-09T11:29:55;4.30;;;2.67;;
18166;SDS011;9208;42.688;23.404;2023-07-09T11:32:25;3.10;;;2.80;;
18166;SDS011;9208;42.688;23.404;2023-07-09T11:34:52;3.00;;;2.80;;
18166;SDS011;9208;42.688;23.404;2023-07-09T11:37:24;3.00;;;2.80;;
18166;SDS011;9208;42.688;23.404;2023-07-09T11:39:51;3.17;;;2.87;;
18166;SDS011;9208;42.688;23.404;2023-07-09T11:44:54;2.97;;;2.77;;
18166;SDS011;9208;42.688;23.404;2023-07-09T11:47:30;3.30;;;3.00;;
18166;SDS011;9208;42.688;23.404;2023-07-09T11:50:26;5.30;;;3.00;;
18166;SDS011;9208;42.688;23.404;2023-07-09T11:52:58;2.63;;;2.43;;
18166;SDS011;9208;42.688;23.404;2023-07-09T11:55:38;3.20;;;2.80;;
18166;SDS011;9208;42.688;23.404;2023-07-09T11:58:04;2.73;;;2.53;;
18166;SDS011;9208;42.688;23.404;2023-07-09T12:00:36;2.90;;;2.67;;
18166;SDS011;9208;42.688;23.404;2023-07-09T12:03:04;3.40;;;3.10;;
18166;SDS011;9208;42.688;23.404;2023-07-09T12:05:31;2.83;;;2.50;;
18166;SDS011;9208;42.688;23.404;2023-07-09T12:07:57;3.40;;;3.10;;
18166;SDS011;9208;42.688;23.404;2023-07-09T12:10:25;3.10;;;2.80;;
18166;SDS011;9208;42.688;23.404;2023-07-09T12:12:54;3.80;;;2.37;;
18166;SDS011;9208;42.688;23.404;2023-07-09T12:15:22;6.27;;;3.27;;
18166;SDS011;9208;42.688;23.404;2023-07-09T12:18:02;3.23;;;2.93;;
18166;SDS011;9208;42.688;23.404;2023-07-09T12:20:35;3.20;;;2.90;;
18166;SDS011;9208;42.688;23.404;2023-07-09T12:25:48;3.90;;;2.90;;
18166;SDS011;9208;42.688;23.404;2023-07-09T12:28:15;3.43;;;2.63;;
18166;SDS011;9208;42.688;23.404;2023-07-09T12:30:47;4.37;;;2.97;;
18166;SDS011;9208;42.688;23.404;2023-07-09T12:33:18;5.63;;;3.30;;
18166;SDS011;9208;42.688;23.404;2023-07-09T12:35:48;3.13;;;2.87;;
18166;SDS011;9208;42.688;23.404;2023-07-09T12:38:22;2.67;;;2.47;;
18166;SDS011;9208;42.688;23.404;2023-07-09T12:40:49;2.90;;;2.70;;
18166;SDS011;9208;42.688;23.404;2023-07-09T12:43:24;3.07;;;2.77;;
18166;SDS011;9208;42.688;23.404;2023-07-09T12:45:53;3.33;;;2.90;;
18166;SDS011;9208;42.688;23.404;2023-07-09T12:48:23;3.07;;;2.87;;
18166;SDS011;9208;42.688;23.404;2023-07-09T12:50:51;2.80;;;2.60;;
18166;SDS011;9208;42.688;23.404;2023-07-09T12:53:20;3.47;;;3.00;;
18166;SDS011;9208;42.688;23.404;2023-07-09T12:55:51;3.60;;;2.90;;
18166;SDS011;9208;42.688;23.404;2023-07-09T12:58:23;2.77;;;2.57;;
18166;SDS011;9208;42.688;23.404;2023-07-09T13:00:53;3.10;;;2.80;;
18166;SDS011;9208;42.688;23.404;2023-07-09T13:03:20;2.90;;;2.70;;
18166;SDS011;9208;42.688;23.404;2023-07-09T13:05:53;2.90;;;2.70;;
18166;SDS011;9208;42.688;23.404;2023-07-09T13:08:21;3.70;;;2.50;;
18166;SDS011;9208;42.688;23.404;2023-07-09T13:10:46;3.77;;;2.70;;
18166;SDS011;9208;42.688;23.404;2023-07-09T13:13:16;3.87;;;3.00;;
18166;SDS011;9208;42.688;23.404;2023-07-09T13:15:43;3.30;;;2.80;;
18166;SDS011;9208;42.688;23.404;2023-07-09T13:18:14;2.80;;;2.60;;
18166;SDS011;9208;42.688;23.404;2023-07-09T13:20:40;3.63;;;2.60;;
18166;SDS011;9208;42.688;23.404;2023-07-09T13:23:14;3.13;;;2.77;;
18166;SDS011;9208;42.688;23.404;2023-07-09T13:25:45;3.97;;;2.97;;
18166;SDS011;9208;42.688;23.404;2023-07-09T13:30:44;5.80;;;3.00;;
18166;SDS011;9208;42.688;23.404;2023-07-09T13:33:10;2.70;;;2.50;;
18166;SDS011;9208;42.688;23.404;2023-07-09T13:35:36;7.37;;;3.13;;
18166;SDS011;9208;42.688;23.404;2023-07-09T13:38:02;2.80;;;2.60;;
18166;SDS011;9208;42.688;23.404;2023-07-09T13:40:31;3.10;;;2.90;;
18166;SDS011;9208;42.688;23.404;2023-07-09T13:42:57;2.70;;;2.50;;
18166;SDS011;9208;42.688;23.404;2023-07-09T13:45:23;4.37;;;2.77;;
18166;SDS011;9208;42.688;23.404;2023-07-09T13:47:51;2.80;;;2.57;;
18166;SDS011;9208;42.688;23.404;2023-07-09T13:50:18;3.07;;;2.70;;
18166;SDS011;9208;42.688;23.404;2023-07-09T13:52:44;3.27;;;2.97;;
18166;SDS011;9208;42.688;23.404;2023-07-09T13:55:18;3.10;;;2.87;;
18166;SDS011;9208;42.688;23.404;2023-07-09T13:57:46;3.17;;;2.97;;
18166;SDS011;9208;42.688;23.404;2023-07-09T14:00:13;3.00;;;2.80;;
18166;SDS011;9208;42.688;23.404;2023-07-09T14:02:39;6.83;;;3.20;;
18166;SDS011;9208;42.688;23.404;2023-07-09T14:05:06;3.00;;;2.70;;
18166;SDS011;9208;42.688;23.404;2023-07-09T14:07:34;3.00;;;2.80;;
18166;SDS011;9208;42.688;23.404;2023-07-09T14:10:03;3.37;;;3.07;;
18166;SDS011;9208;42.688;23.404;2023-07-09T14:12:30;4.17;;;2.70;;
18166;SDS011;9208;42.688;23.404;2023-07-09T14:14:57;4.53;;;2.80;;
18166;SDS011;9208;42.688;23.404;2023-07-09T14:17:25;2.80;;;2.60;;
18166;SDS011;9208;42.688;23.404;2023-07-09T14:19:51;3.10;;;2.90;;
18166;SDS011;9208;42.688;23.404;2023-07-09T14:22:36;3.23;;;2.93;;
18166;SDS011;9208;42.688;23.404;2023-07-09T14:25:03;3.10;;;2.80;;
18166;SDS011;9208;42.688;23.404;2023-07-09T14:27:32;3.53;;;2.97;;
18166;SDS011;9208;42.688;23.404;2023-07-09T14:29:57;3.00;;;2.60;;
18166;SDS011;9208;42.688;23.404;2023-07-09T14:32:32;2.70;;;2.50;;
18166;SDS011;9208;42.688;23.404;2023-07-09T14:35:17;2.70;;;2.50;;
18166;SDS011;9208;42.688;23.404;2023-07-09T14:37:45;5.13;;;3.10;;
18166;SDS011;9208;42.688;23.404;2023-07-09T14:40:12;4.97;;;2.70;;
18166;SDS011;9208;42.688;23.404;2023-07-09T14:42:41;5.40;;;2.80;;
18166;SDS011;9208;42.688;23.404;2023-07-09T14:47:46;2.90;;;2.70;;
18166;SDS011;9208;42.688;23.404;2023-07-09T14:50:12;3.13;;;2.80;;
18166;SDS011;9208;42.688;23.404;2023-07-09T14:52:38;2.83;;;2.60;;
18166;SDS011;9208;42.688;23.404;2023-07-09T14:55:07;4.43;;;2.90;;
18166;SDS011;9208;42.688;23.404;2023-07-09T14:57:38;4.33;;;3.20;;
18166;SDS011;9208;42.688;23.404;2023-07-09T15:00:03;3.67;;;2.70;;
18166;SDS011;9208;42.688;23.404;2023-07-09T15:05:06;3.13;;;2.83;;
18166;SDS011;9208;42.688;23.404;2023-07-09T15:07:37;3.23;;;2.93;;
18166;SDS011;9208;42.688;23.404;2023-07-09T15:10:03;3.73;;;2.80;;
18166;SDS011;9208;42.688;23.404;2023-07-09T15:12:33;2.90;;;2.70;;
18166;SDS011;9208;42.688;23.404;2023-07-09T15:17:40;3.00;;;2.70;;
18166;SDS011;9208;42.688;23.404;2023-07-09T15:20:07;2.90;;;2.70;;
18166;SDS011;9208;42.688;23.404;2023-07-09T15:22:39;2.87;;;2.67;;
18166;SDS011;9208;42.688;23.404;2023-07-09T15:25:08;3.27;;;2.90;;
18166;SDS011;9208;42.688;23.404;2023-07-09T15:27:37;2.60;;;2.40;;
18166;SDS011;9208;42.688;23.404;2023-07-09T15:30:10;3.27;;;2.97;;
18166;SDS011;9208;42.688;23.404;2023-07-09T15:32:40;3.27;;;2.73;;
18166;SDS011;9208;42.688;23.404;2023-07-09T15:35:05;3.37;;;2.90;;
18166;SDS011;9208;42.688;23.404;2023-07-09T15:37:31;2.80;;;2.60;;
18166;SDS011;9208;42.688;23.404;2023-07-09T15:39:56;3.10;;;2.80;;
18166;SDS011;9208;42.688;23.404;2023-07-09T15:42:22;3.10;;;2.80;;
18166;SDS011;9208;42.688;23.404;2023-07-09T15:44:48;3.07;;;2.70;;
18166;SDS011;9208;42.688;23.404;2023-07-09T15:47:16;3.23;;;3.03;;
18166;SDS011;9208;42.688;23.404;2023-07-09T15:49:43;3.13;;;2.83;;
18166;SDS011;9208;42.688;23.404;2023-07-09T15:52:09;4.37;;;2.93;;
18166;SDS011;9208;42.688;23.404;2023-07-09T15:54:35;4.80;;;2.60;;